In Rescue
 
Open Full Screen Window  High Contrast Mode
Wind Gusting 00 knots
03
August 09, 2020 5:24 PM CDT
Weather Information
Wind Direction
  210 °
Wind Speed
  03 kt (3 mph)
Wind Gust
  00 kt (0 mph)
Altimeter
29.83 in
Visibility
10 SM
Temperature
24° C
75° F
Dewpoint
19° C
66° F
Humidity
74%
1hr Rain Fall
00.00 in.
24hr Rain Fall
00.47 in.
Sky Condition
Broken @ 3,100 ft
Broken @ 2,600 ft
MVFR

METAR KHZX 092224Z AUTO 21003KT 10SM BKN026 BKN031 24/19 A2983 RMK AO1

FAA Disclaimer: The data displayed is for advisory purposes only and is not to be used for flight planning or operations.